PDT,Max TemperatureF,Mean TemperatureF,Min TemperatureF,Max Dew PointF,MeanDew PointF,Min DewpointF,Max Humidity, Mean Humidity, Min Humidity, Max Sea Level PressureIn, Mean Sea Level PressureIn, Min Sea Level PressureIn, Max VisibilityMiles, Mean VisibilityMiles, Min VisibilityMiles, Max Wind SpeedMPH, Mean Wind SpeedMPH, Max Gust SpeedMPH,PrecipitationIn, CloudCover, Events, WindDirDegrees
2013-9-1,68,60,51,55,53,49,100,84,63,29.90,29.86,29.82,10,10,8,6,1,,0.00,0,,111
2013-9-2,71,60,50,60,54,49,100,86,57,29.96,29.91,29.88,10,10,6,6,1,,0.02,3,Rain,177
2013-9-3,72,59,50,61,57,49,100,93,73,30.05,30.01,29.96,10,9,2,5,1,,0.03,5,Rain,108
2013-9-4,71,60,52,61,57,52,100,92,70,30.08,30.05,30.04,10,7,0,12,1,,0.05,4,Fog-Rain,355
2013-9-5,69,60,51,61,55,51,100,96,76,30.09,30.03,29.94,10,5,0,12,1,,0.04,4,Fog-Rain-Thunderstorm,234
2013-9-6,68,60,53,62,58,53,100,94,78,30.10,30.03,29.94,10,6,0,5,2,,0.00,6,Fog-Rain,119
2013-9-7,71,62,53,60,56,53,100,93,70,30.11,30.09,30.05,10,6,0,5,2,,0.00,6,Fog-Rain,116
2013-9-8,73,60,50,58,53,50,100,93,63,30.12,30.09,30.05,10,5,0,10,1,,0.00,2,Fog,201
2013-9-9,71,60,48,58,54,48,100,91,68,30.09,30.06,30.01,10,5,0,8,1,,0.00,3,Fog,132
2013-9-10,75,60,46,57,51,46,100,86,51,30.03,30.00,29.92,10,6,0,10,1,,0.00,0,Fog,356
2013-9-11,84,69,54,58,54,52,97,67,35,29.98,29.94,29.90,10,10,10,9,2,,0.00,0,,360
2013-9-12,69,58,51,55,53,49,100,89,66,30.00,29.95,29.91,10,8,0,7,2,,0.00,1,Fog,112
2013-9-13,63,58,53,58,56,53,100,94,82,29.98,29.94,29.89,10,6,0,10,4,,0.00,8,Fog,168
2013-9-14,66,58,50,58,55,49,100,94,73,29.90,29.84,29.77,10,4,0,7,2,,0.00,6,Fog,208
2013-9-15,61,53,46,57,53,46,100,96,82,29.81,29.76,29.72,10,5,0,10,2,18,0.19,7,Fog-Rain-Thunderstorm,153
2013-9-16,64,60,55,61,55,47,100,93,64,29.93,29.86,29.79,10,4,0,8,4,,0.05,8,Fog-Rain,158
2013-9-17,66,58,52,52,51,48,97,80,63,29.92,29.89,29.86,10,9,6,9,1,,0.00,7,,217
2013-9-18,64,56,48,52,50,47,97,80,63,30.08,30.04,29.94,10,9,8,8,3,,0.00,3,Rain,145
2013-9-19,73,61,48,51,49,47,96,72,43,30.06,29.91,29.76,10,10,10,7,2,,0.00,0,,42
2013-9-20,66,54,45,54,50,45,100,83,56,29.76,29.66,29.60,10,10,9,7,1,,0.00,3,Rain,125
2013-9-21,66,57,50,56,52,48,100,90,63,29.73,29.69,29.66,10,6,0,9,2,,0.00,6,Fog,148
2013-9-22,59,54,48,54,51,48,97,92,83,29.71,29.61,29.50,10,9,1,23,4,34,0.04,7,Rain,132
2013-9-23,61,52,46,53,49,44,100,90,67,29.96,29.85,29.72,10,8,1,9,3,16,0.17,6,Rain,208
2013-9-24,60,52,48,52,49,46,100,88,67,29.96,29.91,29.86,10,9,2,8,1,,0.14,6,Rain,132
2013-9-25,63,53,43,49,47,42,100,86,58,30.03,29.95,29.89,10,8,1,10,2,,0.52,4,Rain-Thunderstorm,272
2013-9-26,62,52,43,52,46,42,100,87,64,30.14,30.10,30.04,10,9,5,10,1,,0.00,3,,115
2013-9-27,57,52,48,52,50,47,100,92,82,30.10,29.95,29.83,10,9,4,8,4,,0.01,7,Rain,108
2013-9-28,57,52,48,55,52,46,100,93,80,29.80,29.47,29.31,10,7,1,17,6,28,0.58,8,Rain,145
2013-9-29,55,52,50,52,49,42,100,88,72,29.49,29.37,29.11,10,9,4,29,9,41,0.40,7,Rain,137
2013-9-30,54,49,45,50,47,41,94,88,71,29.89,29.66,29.34,10,9,2,13,7,23,0.28,7,Rain,172